ESOW/VST METAR and TAF weather

Enter ICAO airport designator
Station Type Date Time Source
ESOW METAR 2019/10/20 19:20 UTC NOAA

ESOW 201920Z AUTO 36005KT 320V020 9999 OVC003/// 07/06 Q1013


Station Type Date Time Source
ESOW Decoded METAR 2019/10/20 19:20 UTC NOAA

Vasteras / Hasslo, Sweden (ESOW) 59-35N 016-38E 31M
Oct 20, 2019 - 03:20 PM EDT / 2019.10.20 1920 UTC
Wind: from the N (360 degrees) at 6 MPH (5 KT) (direction variable):0
Visibility: greater than 7 mile(s):0
Sky conditions: overcast
Temperature: 44 F (7 C)
Dew Point: 42 F (6 C)
Relative Humidity: 93%
Pressure (altimeter): 29.91 in. Hg (1013 hPa)
ob: ESOW 201920Z AUTO 36005KT 320V020 9999 OVC003/// 07/06 Q1013
cycle: 19

Station Type Date Time Source
ESOW TAF 2018/11/18 12:33 UTC NOAA

TAF ESOW 181130Z 1812/1914 02015KT 9999 BKN020
TEMPO 1812/1814 02015G25KT

Example: see airport list